Time;durP1;ratioP1;P1;durP2;ratioP2;P2;SDS_P1;SDS_P2;PMS_P1;PMS_P2;Temp;Humidity;BMP_temperature;BMP_pressure;BME280_temperature;BME280_humidity;BME280_pressure;Samples;Min_cycle;Max_cycle;Signal;HPM_P1;HPM_P2
2022/02/03 00:01:40;;;;;;;4.50;4.10;;;8.30;83.60;;;;;;4975411;28;20027;-66
2022/02/03 00:04:12;;;;;;;5.20;4.57;;;8.30;83.50;;;;;;4976096;28;20433;-66
2022/02/03 00:06:50;;;;;;;4.85;4.43;;;8.30;83.40;;;;;;4975658;28;20122;-67
2022/02/03 00:25:42;;;;;;;8.15;6.28;;;8.40;83.10;;;;;;4976071;28;20042;-68
2022/02/03 00:33:25;;;;;;;8.50;7.40;;;8.30;83.60;;;;;;4976897;28;20038;-67
2022/02/03 00:36:16;;;;;;;9.23;7.22;;;8.30;83.80;;;;;;4973931;28;20491;-68
2022/02/03 00:49:36;;;;;;;7.72;6.43;;;8.20;84.30;;;;;;4977265;28;20202;-66
2022/02/03 00:52:02;;;;;;;8.20;7.00;;;8.20;84.40;;;;;;4977788;28;20034;-69
2022/02/03 00:54:31;;;;;;;8.57;7.28;;;8.20;84.50;;;;;;4975009;28;20038;-67
2022/02/03 00:57:05;;;;;;;8.02;7.13;;;8.20;84.60;;;;;;4976351;28;20042;-68
2022/02/03 00:59:38;;;;;;;8.65;7.07;;;8.20;84.80;;;;;;4973317;28;20394;-68
2022/02/03 01:02:11;;;;;;;8.18;6.93;;;8.20;84.60;;;;;;4976151;28;20124;-67
2022/02/03 01:04:41;;;;;;;7.90;6.88;;;8.20;84.50;;;;;;4974102;28;20114;-68
2022/02/03 01:07:09;;;;;;;8.43;6.57;;;8.20;84.50;;;;;;4977268;28;20068;-69
2022/02/03 01:09:39;;;;;;;7.47;6.68;;;8.30;84.50;;;;;;4976020;28;20030;-68
2022/02/03 01:12:18;;;;;;;8.32;6.80;;;8.30;84.30;;;;;;4978091;28;20771;-68
2022/02/03 01:14:55;;;;;;;7.03;6.32;;;8.30;84.30;;;;;;4978560;28;20106;-66
2022/02/03 01:17:43;;;;;;;7.13;6.43;;;8.30;84.10;;;;;;4980750;28;20030;-67
2022/02/03 01:44:58;;;;;;;6.95;6.25;;;8.40;83.90;;;;;;4977398;28;20049;-67
2022/02/03 01:47:34;;;;;;;6.68;5.97;;;8.40;83.90;;;;;;4982024;28;20027;-67
2022/02/03 01:52:36;;;;;;;7.00;5.97;;;8.50;83.90;;;;;;4981542;28;20049;-68
2022/02/03 01:55:08;;;;;;;6.90;6.10;;;8.50;83.80;;;;;;4981520;28;20154;-66
2022/02/03 01:57:59;;;;;;;6.30;5.70;;;8.50;83.70;;;;;;4981142;28;20030;-69
2022/02/03 02:00:25;;;;;;;7.00;6.25;;;8.50;83.60;;;;;;4981904;28;20520;-67
2022/02/03 02:03:05;;;;;;;6.70;6.00;;;8.50;83.50;;;;;;4978806;28;20035;-68
2022/02/03 02:05:56;;;;;;;6.70;6.00;;;8.50;83.50;;;;;;4978419;28;20046;-67
2022/02/03 02:09:01;;;;;;;6.20;5.60;;;8.50;83.50;;;;;;4976342;28;20401;-68
2022/02/03 02:39:06;;;;;;;9.40;6.40;;;8.50;82.80;;;;;;4975820;28;20037;-67
2022/02/03 02:45:02;;;;;;;8.27;7.07;;;8.50;83.10;;;;;;4975806;28;20037;-67
2022/02/03 02:47:51;;;;;;;8.32;6.70;;;8.50;82.70;;;;;;4975450;28;20034;-67
2022/02/03 02:50:29;;;;;;;9.13;7.25;;;8.50;82.80;;;;;;4977223;28;20523;-69
2022/02/03 02:53:33;;;;;;;10.65;7.78;;;8.40;82.70;;;;;;4978614;28;20035;-69
2022/02/03 02:59:08;;;;;;;10.68;7.43;;;8.40;83.10;;;;;;4978067;28;20035;-68
2022/02/03 03:36:49;;;;;;;11.15;8.52;;;8.00;84.30;;;;;;4979025;28;20122;-66
2022/02/03 03:39:15;;;;;;;11.02;8.45;;;8.00;84.40;;;;;;4976847;28;20057;-67
2022/02/03 03:41:44;;;;;;;10.60;8.50;;;8.00;84.40;;;;;;4978788;28;20085;-67
2022/02/03 03:44:14;;;;;;;9.57;7.93;;;8.00;84.50;;;;;;4979497;28;20034;-66
2022/02/03 03:46:44;;;;;;;11.85;9.07;;;7.90;84.40;;;;;;4978147;28;20561;-67
2022/02/03 03:49:32;;;;;;;10.43;8.63;;;7.90;84.50;;;;;;4979741;28;20045;-67
2022/02/03 03:52:10;;;;;;;10.43;8.38;;;7.90;85.10;;;;;;4976234;28;20121;-67
2022/02/03 03:54:49;;;;;;;11.82;8.57;;;7.90;84.80;;;;;;4974116;28;20673;-67
2022/02/03 04:00:45;;;;;;;12.73;9.27;;;7.90;85.20;;;;;;4972945;28;20030;-68
2022/02/03 04:38:09;;;;;;;9.65;8.10;;;7.90;85.20;;;;;;4974813;28;20057;-67
2022/02/03 05:10:21;;;;;;;11.75;9.77;;;7.90;85.90;;;;;;4978490;28;20152;-68
2022/02/03 05:16:53;;;;;;;10.90;8.73;;;7.90;85.40;;;;;;4977888;28;20042;-67
2022/02/03 05:45:03;;;;;;;11.85;9.30;;;8.00;85.50;;;;;;4978117;28;20035;-66
2022/02/03 06:04:17;;;;;;;77.20;40.60;;;8.20;85.80;;;;;;4979001;28;20411;-67
2022/02/03 06:07:06;;;;;;;80.72;41.45;;;8.20;84.80;;;;;;4981519;28;20046;-66
2022/02/03 06:12:31;;;;;;;50.13;28.55;;;8.20;84.90;;;;;;4981851;28;20035;-67
2022/02/03 06:14:58;;;;;;;26.85;16.40;;;8.20;85.50;;;;;;4980052;28;20043;-69
2022/02/03 06:27:44;;;;;;;10.85;8.48;;;8.30;84.90;;;;;;4980295;28;20058;-66
2022/02/03 06:30:12;;;;;;;10.73;8.07;;;8.30;85.00;;;;;;4981465;28;20497;-67
2022/02/03 06:32:41;;;;;;;10.40;8.10;;;8.30;85.00;;;;;;4982980;28;20034;-67
2022/02/03 06:35:09;;;;;;;13.85;9.30;;;8.30;84.90;;;;;;4982527;28;20068;-67
2022/02/03 06:37:36;;;;;;;10.13;8.38;;;8.30;85.00;;;;;;4979566;28;20031;-67
2022/02/03 06:40:04;;;;;;;11.68;8.85;;;8.30;85.00;;;;;;4978662;28;20038;-66
2022/02/03 06:42:29;;;;;;;11.95;9.20;;;8.30;85.10;;;;;;4980097;28;20042;-67
2022/02/03 06:45:16;;;;;;;13.27;9.70;;;8.20;85.00;;;;;;4978233;28;20639;-67
2022/02/03 06:48:00;;;;;;;11.43;9.23;;;8.20;85.10;;;;;;4979419;28;20030;-67
2022/02/03 06:50:49;;;;;;;12.43;9.37;;;8.20;85.20;;;;;;4980227;28;20057;-66
2022/02/03 06:53:19;;;;;;;11.23;8.63;;;8.20;85.20;;;;;;4978083;28;20026;-67
2022/02/03 06:55:55;;;;;;;11.93;8.95;;;8.20;85.20;;;;;;4979785;28;20038;-67
2022/02/03 06:58:31;;;;;;;10.25;8.25;;;8.20;85.30;;;;;;4978895;28;20034;-67
2022/02/03 07:01:07;;;;;;;9.93;7.85;;;8.20;85.30;;;;;;4977690;28;20035;-68
2022/02/03 07:03:37;;;;;;;9.85;7.68;;;8.20;85.30;;;;;;4977839;28;20413;-66
2022/02/03 07:06:03;;;;;;;11.05;8.45;;;8.20;85.40;;;;;;4977587;28;20031;-67
2022/02/03 07:08:30;;;;;;;23.88;14.15;;;8.30;85.50;;;;;;4976945;28;20046;-66
2022/02/03 07:10:56;;;;;;;21.90;13.60;;;8.30;85.50;;;;;;4978538;28;21405;-66
2022/02/03 07:13:23;;;;;;;16.58;12.23;;;8.20;85.40;;;;;;4983220;28;20140;-67
2022/02/03 07:15:48;;;;;;;11.73;9.50;;;8.30;85.40;;;;;;4981358;28;20037;-66
2022/02/03 07:18:14;;;;;;;22.98;16.75;;;8.30;85.90;;;;;;4981460;28;20448;-66
2022/02/03 07:20:40;;;;;;;17.52;13.73;;;8.30;85.40;;;;;;4979154;28;20046;-67
2022/02/03 07:23:06;;;;;;;11.55;9.77;;;8.30;85.50;;;;;;4980448;28;20713;-67
2022/02/03 07:25:32;;;;;;;10.38;8.68;;;8.30;85.30;;;;;;4978273;28;20423;-66
2022/02/03 07:28:01;;;;;;;11.32;9.00;;;8.40;85.50;;;;;;4980738;28;20109;-66
2022/02/03 07:30:27;;;;;;;9.88;8.30;;;8.40;85.50;;;;;;4980053;28;20414;-67
2022/02/03 07:32:56;;;;;;;9.77;8.23;;;8.30;85.40;;;;;;4982753;28;20057;-68
2022/02/03 07:35:22;;;;;;;9.70;7.32;;;8.30;85.50;;;;;;4980594;28;20035;-67
2022/02/03 07:37:49;;;;;;;11.70;6.63;;;8.30;85.50;;;;;;4981739;28;20037;-66
2022/02/03 07:40:16;;;;;;;6.78;6.07;;;8.30;85.30;;;;;;4983757;28;20101;-67
2022/02/03 07:42:46;;;;;;;7.70;6.40;;;8.30;85.30;;;;;;4981127;28;20038;-66
2022/02/03 07:45:12;;;;;;;8.15;6.20;;;8.40;85.40;;;;;;4980366;28;20030;-66
2022/02/03 07:47:45;;;;;;;7.03;6.05;;;8.40;85.30;;;;;;4980143;28;20135;-66
2022/02/03 07:50:11;;;;;;;8.60;7.00;;;8.40;85.30;;;;;;4978641;28;20468;-66
2022/02/03 07:52:37;;;;;;;8.65;7.05;;;8.40;85.10;;;;;;4978873;28;20034;-66
2022/02/03 07:55:03;;;;;;;9.93;8.40;;;8.50;85.10;;;;;;4978744;28;20053;-67
2022/02/03 07:57:28;;;;;;;6.50;5.28;;;8.50;85.10;;;;;;4980184;28;20033;-67
2022/02/03 07:59:55;;;;;;;6.32;5.32;;;8.50;85.00;;;;;;4981025;28;20042;-66
2022/02/03 08:02:21;;;;;;;5.30;4.53;;;8.50;84.80;;;;;;4980496;28;20089;-66
2022/02/03 08:04:48;;;;;;;4.20;3.80;;;8.50;84.70;;;;;;4979919;28;20367;-66
2022/02/03 08:07:17;;;;;;;5.35;4.43;;;8.50;84.60;;;;;;4979315;28;20061;-66
2022/02/03 08:12:15;;;;;;;4.93;4.43;;;8.50;84.50;;;;;;4972832;28;20505;-66
2022/02/03 08:14:45;;;;;;;5.63;4.60;;;8.50;84.50;;;;;;4975091;28;20418;-65
2022/02/03 08:17:18;;;;;;;7.50;6.07;;;8.50;84.40;;;;;;4977127;28;20042;-66
2022/02/03 08:19:55;;;;;;;5.45;4.95;;;8.50;84.50;;;;;;4979004;28;20079;-66
2022/02/03 08:22:28;;;;;;;6.38;5.78;;;8.50;84.40;;;;;;4981581;28;20034;-66
2022/02/03 08:28:03;;;;;;;8.40;7.40;;;8.60;84.30;;;;;;4973233;28;20039;-66
2022/02/03 08:33:01;;;;;;;6.70;5.53;;;8.60;84.20;;;;;;4980001;28;20976;-67
2022/02/03 08:35:41;;;;;;;6.30;5.63;;;8.60;84.00;;;;;;4978106;28;20035;-66
2022/02/03 08:43:15;;;;;;;14.90;11.60;;;8.70;84.00;;;;;;4979185;28;20516;-65
2022/02/03 08:45:42;;;;;;;13.75;10.85;;;8.70;84.00;;;;;;4979375;28;20161;-67
2022/02/03 08:48:08;;;;;;;13.27;10.85;;;8.70;84.30;;;;;;4979214;28;20514;-66
2022/02/03 08:50:35;;;;;;;15.48;11.05;;;8.70;84.30;;;;;;4979427;28;20041;-68
2022/02/03 10:00:44;;;;;;;7.05;5.63;;;9.30;83.40;;;;;;4984565;28;20038;-66
2022/02/03 10:03:18;;;;;;;4.35;3.95;;;9.30;83.20;;;;;;4981833;28;20049;-66
2022/02/03 10:08:27;;;;;;;7.80;6.80;;;9.40;82.60;;;;;;4981512;28;20039;-65
2022/02/03 10:11:18;;;;;;;5.70;5.13;;;9.40;83.10;;;;;;4983154;28;20050;-66
2022/02/03 10:13:48;;;;;;;4.88;3.92;;;9.40;82.30;;;;;;4982740;28;20061;-66
2022/02/03 10:16:15;;;;;;;3.67;3.38;;;9.50;82.60;;;;;;4984754;28;20027;-65
2022/02/03 10:18:42;;;;;;;4.32;3.55;;;9.50;82.40;;;;;;4983069;28;20108;-66
2022/02/03 10:21:11;;;;;;;3.92;3.53;;;9.50;82.30;;;;;;4984165;28;20027;-65
2022/02/03 10:24:04;;;;;;;4.50;4.10;;;9.50;82.30;;;;;;4984304;28;20031;-66
2022/02/03 10:26:33;;;;;;;4.15;3.75;;;9.50;82.20;;;;;;4982414;28;20042;-67
2022/02/03 10:28:59;;;;;;;4.30;3.90;;;9.70;82.40;;;;;;4984817;28;20134;-66
2022/02/03 10:31:32;;;;;;;4.35;3.78;;;9.60;82.20;;;;;;4981497;28;20050;-68
2022/02/03 10:34:09;;;;;;;4.15;3.75;;;9.60;82.00;;;;;;4981836;28;20067;-66
2022/02/03 10:45:18;;;;;;;4.57;4.18;;;9.80;81.50;;;;;;4981551;28;20636;-66
2022/02/03 11:08:31;;;;;;;6.10;4.28;;;10.00;81.30;;;;;;4982236;28;20049;-67
2022/02/03 11:11:00;;;;;;;5.30;4.18;;;10.00;80.40;;;;;;4981347;28;20049;-66
2022/02/03 11:13:33;;;;;;;4.35;3.95;;;10.00;80.50;;;;;;4984963;28;20133;-67
2022/02/03 11:16:05;;;;;;;3.45;3.15;;;10.10;80.70;;;;;;4984651;28;20023;-66
2022/02/03 11:18:31;;;;;;;3.88;2.80;;;10.10;80.70;;;;;;4982492;28;20035;-66
2022/02/03 11:20:59;;;;;;;3.40;3.15;;;10.10;80.70;;;;;;4983062;28;20038;-66
2022/02/03 11:26:41;;;;;;;3.47;3.17;;;10.20;80.50;;;;;;4981955;28;20035;-66
2022/02/03 11:43:15;;;;;;;3.35;3.08;;;10.50;80.00;;;;;;4979260;28;20154;-67
2022/02/03 11:57:09;;;;;;;4.00;3.53;;;10.50;79.40;;;;;;4981475;28;20458;-67
2022/02/03 12:15:53;;;;;;;4.78;3.85;;;10.60;79.60;;;;;;5013091;28;20746;-67
2022/02/03 12:21:40;;;;;;;4.15;3.85;;;10.60;79.70;;;;;;4979577;28;20046;-66
2022/02/03 12:24:47;;;;;;;4.18;3.50;;;10.60;79.90;;;;;;4980537;28;20037;-67
2022/02/03 12:30:00;;;;;;;9.15;4.53;;;10.70;79.80;;;;;;4979767;28;20038;-66
2022/02/03 12:40:58;;;;;;;5.47;4.07;;;10.70;79.80;;;;;;4980171;28;20058;-67
2022/02/03 12:43:41;;;;;;;5.30;3.88;;;10.70;79.70;;;;;;4977315;28;20030;-67
2022/02/03 12:46:01;;;;;;;4.90;4.20;;;10.70;79.60;;;;;;4978319;28;20046;-67
2022/02/03 12:48:32;;;;;;;4.18;3.78;;;10.70;79.70;;;;;;4974840;28;20513;-67
2022/02/03 12:50:58;;;;;;;6.57;4.63;;;10.70;79.50;;;;;;4976850;28;20039;-67
2022/02/03 12:53:35;;;;;;;7.60;5.20;;;10.70;79.50;;;;;;4979439;28;20493;-67
2022/02/03 12:56:06;;;;;;;6.38;4.97;;;10.70;79.10;;;;;;4981446;28;20034;-68
2022/02/03 12:58:39;;;;;;;5.03;4.53;;;10.70;79.60;;;;;;4978497;28;20584;-68
2022/02/03 13:01:12;;;;;;;4.68;4.28;;;10.80;79.30;;;;;;4980798;28;20030;-67
2022/02/03 13:03:41;;;;;;;4.82;3.95;;;10.80;79.40;;;;;;4979659;28;20033;-68
2022/02/03 13:06:14;;;;;;;5.68;4.35;;;10.80;79.40;;;;;;4981963;28;20133;-68
2022/02/03 13:08:51;;;;;;;5.53;3.67;;;10.80;79.40;;;;;;4982195;28;20034;-68
2022/02/03 13:11:28;;;;;;;4.38;3.72;;;10.80;79.40;;;;;;4983160;28;20039;-67
2022/02/03 13:14:08;;;;;;;5.00;3.72;;;10.80;80.40;;;;;;4998958;28;20048;-67
2022/02/03 13:16:34;;;;;;;4.07;3.63;;;10.90;79.40;;;;;;4983108;28;20062;-67
2022/02/03 13:26:56;;;;;;;4.25;3.63;;;11.00;79.30;;;;;;4983962;28;20113;-67
2022/02/03 13:29:48;;;;;;;7.32;3.90;;;11.00;79.10;;;;;;4983350;28;20057;-67
2022/02/03 13:32:21;;;;;;;3.53;3.22;;;11.00;79.10;;;;;;4984841;28;20057;-67
2022/02/03 13:35:06;;;;;;;4.53;3.20;;;11.10;79.10;;;;;;4981286;28;20057;-66
2022/02/03 13:37:40;;;;;;;7.03;4.65;;;11.10;78.60;;;;;;4982621;28;20030;-67
2022/02/03 13:40:16;;;;;;;7.00;3.90;;;11.20;78.70;;;;;;4982802;28;20602;-67
2022/02/03 13:42:51;;;;;;;4.80;3.55;;;11.10;78.50;;;;;;4983293;28;20547;-68
2022/02/03 13:45:20;;;;;;;3.53;3.22;;;11.10;78.60;;;;;;4983013;28;20042;-67
2022/02/03 13:47:48;;;;;;;5.72;3.50;;;11.20;78.40;;;;;;4982911;28;20127;-67
2022/02/03 13:50:23;;;;;;;4.47;3.22;;;11.10;78.40;;;;;;4981527;28;20528;-67
2022/02/03 14:29:00;;;;;;;3.73;3.43;;;11.20;78.40;;;;;;4981867;28;20170;-67
2022/02/03 14:31:26;;;;;;;4.20;3.33;;;11.10;78.40;;;;;;4981118;28;20084;-68
2022/02/03 14:33:53;;;;;;;6.68;3.72;;;11.20;78.40;;;;;;4982413;28;20171;-68
2022/02/03 14:36:22;;;;;;;5.20;3.35;;;11.10;78.30;;;;;;4983071;28;20042;-68
2022/02/03 14:43:44;;;;;;;4.93;3.92;;;11.10;78.40;;;;;;4981975;28;20039;-66
2022/02/03 14:46:15;;;;;;;5.07;3.42;;;11.10;78.50;;;;;;4980166;28;20488;-67
2022/02/03 14:48:43;;;;;;;10.45;4.43;;;11.10;78.40;;;;;;4979833;28;20046;-67
2022/02/03 14:51:14;;;;;;;6.40;3.42;;;11.10;78.40;;;;;;4981116;28;20043;-67
2022/02/03 14:53:56;;;;;;;5.75;3.30;;;11.00;78.50;;;;;;4979478;28;20030;-68
2022/02/03 14:59:07;;;;;;;6.53;5.18;;;11.10;78.40;;;;;;4975333;28;20076;-67
2022/02/03 15:01:33;;;;;;;5.07;3.97;;;11.00;78.20;;;;;;4976296;28;20718;-68
2022/02/03 15:04:01;;;;;;;4.43;4.00;;;11.00;78.10;;;;;;4977548;28;20042;-67
2022/02/03 15:06:33;;;;;;;6.72;4.07;;;11.00;78.20;;;;;;4981906;28;20039;-67
2022/02/03 15:09:16;;;;;;;7.43;6.30;;;11.00;78.30;;;;;;4983514;28;20039;-67
2022/02/03 15:14:13;;;;;;;3.92;3.53;;;10.90;78.40;;;;;;4979871;28;20042;-67
2022/02/03 15:16:39;;;;;;;3.47;3.17;;;10.90;78.40;;;;;;4979903;28;20027;-67
2022/02/03 15:19:08;;;;;;;9.25;6.43;;;10.90;78.40;;;;;;4978649;28;20121;-67
2022/02/03 15:21:34;;;;;;;4.47;4.07;;;10.90;78.50;;;;;;4979933;28;20042;-67
2022/02/03 15:24:01;;;;;;;15.45;10.85;;;10.90;78.50;;;;;;4974387;28;20444;-67
2022/02/03 15:26:27;;;;;;;8.13;6.45;;;10.90;78.50;;;;;;4977162;28;20041;-68
2022/02/03 15:28:54;;;;;;;5.15;4.07;;;10.90;78.50;;;;;;4977330;28;20405;-67
2022/02/03 15:31:22;;;;;;;6.00;4.30;;;10.80;78.50;;;;;;4972285;28;20031;-68
2022/02/03 15:33:56;;;;;;;6.03;5.22;;;10.80;78.60;;;;;;4973712;28;20038;-67
2022/02/03 15:36:21;;;;;;;12.65;9.38;;;10.80;78.70;;;;;;4975029;28;20459;-67
2022/02/03 15:38:49;;;;;;;10.43;8.60;;;10.70;78.70;;;;;;4973005;28;20035;-68
2022/02/03 15:41:23;;;;;;;6.47;5.55;;;10.70;78.70;;;;;;4974427;28;20057;-67
2022/02/03 15:43:50;;;;;;;6.73;5.67;;;10.70;78.70;;;;;;4974210;28;20038;-67
2022/02/03 15:46:18;;;;;;;7.43;6.20;;;10.70;78.70;;;;;;4974269;28;20030;-67
2022/02/03 15:48:55;;;;;;;;;;;;;;;;;;;;;
2022/02/03 16:18:34;;;;;;;5.43;4.13;;;10.40;79.00;;;;;;5011166;28;20033;-67
2022/02/03 16:21:12;;;;;;;7.00;4.63;;;10.30;78.90;;;;;;5013125;28;20759;-67
2022/02/03 16:40:48;;;;;;;4.63;4.15;;;10.20;79.20;;;;;;4979558;28;20041;-67
2022/02/03 16:53:28;;;;;;;7.55;6.00;;;10.00;79.40;;;;;;4975749;28;20038;-67
2022/02/03 16:55:56;;;;;;;7.43;6.10;;;9.90;79.30;;;;;;4978098;28;20084;-66
2022/02/03 16:58:22;;;;;;;7.07;6.15;;;9.90;79.40;;;;;;4975099;28;20256;-67
2022/02/03 17:00:48;;;;;;;7.15;5.78;;;9.90;79.40;;;;;;4976006;28;20350;-67
2022/02/03 17:03:14;;;;;;;7.32;5.38;;;9.80;79.40;;;;;;4975119;28;20034;-67
2022/02/03 17:05:40;;;;;;;6.35;5.28;;;9.80;79.50;;;;;;4976786;28;20035;-67
2022/02/03 17:08:06;;;;;;;7.43;5.90;;;9.80;79.60;;;;;;4975801;28;20449;-67
2022/02/03 17:10:32;;;;;;;8.32;5.30;;;9.80;79.60;;;;;;4974099;28;20038;-67
2022/02/03 17:12:58;;;;;;;8.90;7.07;;;9.80;79.60;;;;;;4976968;28;20382;-67
2022/02/03 17:15:24;;;;;;;9.48;7.65;;;9.80;79.60;;;;;;4975193;28;20501;-67
2022/02/03 17:17:50;;;;;;;12.05;8.40;;;9.80;79.60;;;;;;4977716;28;20027;-67
2022/02/03 17:20:18;;;;;;;12.93;8.20;;;9.70;79.60;;;;;;4976865;28;20043;-66
2022/02/03 17:22:48;;;;;;;12.10;7.50;;;9.70;79.60;;;;;;4975159;28;20039;-67
2022/02/03 17:25:20;;;;;;;8.95;6.13;;;9.70;79.40;;;;;;4976531;28;20038;-68
2022/02/03 17:28:15;;;;;;;6.78;5.05;;;9.70;79.40;;;;;;4978174;28;20041;-67
2022/02/03 17:30:45;;;;;;;6.00;4.95;;;9.70;79.40;;;;;;4974160;28;20038;-66
2022/02/03 18:51:26;;;;;;;7.28;5.72;;;8.90;79.70;;;;;;4977823;28;20061;-67
2022/02/03 19:27:39;;;;;;;8.82;6.60;;;8.80;79.90;;;;;;4978430;28;20035;-69
2022/02/03 20:10:27;;;;;;;8.52;6.70;;;8.50;80.60;;;;;;4979981;28;20054;-67
2022/02/03 20:12:53;;;;;;;8.27;6.78;;;8.40;80.60;;;;;;4980277;28;20038;-67
2022/02/03 20:15:21;;;;;;;10.82;7.32;;;8.40;80.80;;;;;;4973542;28;20501;-68
2022/02/03 20:17:47;;;;;;;10.02;7.57;;;8.40;80.80;;;;;;4978011;28;20027;-68
2022/02/03 20:20:13;;;;;;;9.27;7.28;;;8.40;81.00;;;;;;4977740;28;20073;-67
2022/02/03 20:22:40;;;;;;;9.60;7.15;;;8.40;81.10;;;;;;4977341;28;20516;-69
2022/02/03 20:25:07;;;;;;;8.85;6.75;;;8.40;81.20;;;;;;4993268;28;20062;-67
2022/02/03 20:27:33;;;;;;;8.63;6.55;;;8.40;81.10;;;;;;4978742;28;20034;-68
2022/02/03 20:30:00;;;;;;;12.05;7.10;;;8.40;81.10;;;;;;4977354;28;20125;-68
2022/02/03 20:32:28;;;;;;;9.05;6.82;;;8.40;81.00;;;;;;4977581;28;20565;-68
2022/02/03 20:34:55;;;;;;;9.75;7.03;;;8.40;80.90;;;;;;4976603;28;20046;-67
2022/02/03 20:37:21;;;;;;;7.85;6.60;;;8.40;80.90;;;;;;4978849;28;20088;-68
2022/02/03 20:39:46;;;;;;;8.73;6.25;;;8.40;80.80;;;;;;4975548;28;20042;-68
2022/02/03 20:42:15;;;;;;;11.30;7.75;;;8.40;80.80;;;;;;4977103;28;20536;-69
2022/02/03 20:44:43;;;;;;;11.38;7.97;;;8.40;80.60;;;;;;4977436;28;20102;-68
2022/02/03 20:47:08;;;;;;;10.07;8.02;;;8.40;80.60;;;;;;4977408;28;20061;-68
2022/02/03 20:49:34;;;;;;;9.05;7.22;;;8.40;80.50;;;;;;4977997;28;20497;-68
2022/02/03 20:52:00;;;;;;;8.95;6.90;;;8.30;80.30;;;;;;4979648;28;20038;-67
2022/02/03 20:54:26;;;;;;;9.13;7.07;;;8.30;80.20;;;;;;4976160;28;20053;-66
2022/02/03 20:56:52;;;;;;;10.18;7.22;;;8.20;80.10;;;;;;4979809;28;20031;-68
2022/02/03 20:59:24;;;;;;;8.95;7.20;;;8.20;80.10;;;;;;4979587;28;20038;-67
2022/02/03 21:01:52;;;;;;;9.15;7.03;;;8.20;80.10;;;;;;4979428;28;20030;-67
2022/02/03 21:04:31;;;;;;;9.00;7.45;;;8.10;80.00;;;;;;4976251;28;20061;-67
2022/02/03 21:06:56;;;;;;;10.13;7.78;;;8.10;80.00;;;;;;4994589;28;20069;-66
2022/02/03 21:09:22;;;;;;;10.00;7.88;;;8.00;80.00;;;;;;4975694;28;20035;-67
2022/02/03 21:11:48;;;;;;;8.82;7.05;;;8.00;80.10;;;;;;4977881;28;20038;-67
2022/02/03 21:14:13;;;;;;;10.45;7.50;;;7.90;80.10;;;;;;4978226;28;20145;-67
2022/02/03 21:16:40;;;;;;;9.70;7.65;;;7.90;80.10;;;;;;4968766;28;20114;-68
2022/02/03 21:19:06;;;;;;;13.65;10.02;;;7.90;80.00;;;;;;4977898;28;20042;-67
2022/02/03 21:21:31;;;;;;;11.13;7.75;;;7.90;80.10;;;;;;4977625;28;20038;-67
2022/02/03 21:23:57;;;;;;;8.65;7.18;;;7.80;80.10;;;;;;4975922;28;20038;-67
2022/02/03 21:26:32;;;;;;;11.02;7.15;;;7.70;80.00;;;;;;4977347;28;20039;-67
2022/02/03 21:28:58;;;;;;;10.23;7.43;;;7.60;80.10;;;;;;4979600;28;20513;-67
2022/02/03 21:31:24;;;;;;;11.70;8.50;;;7.60;80.20;;;;;;4980617;28;20038;-67
2022/02/03 21:33:54;;;;;;;11.13;7.75;;;7.50;80.50;;;;;;4978017;28;20092;-67
2022/02/03 21:36:22;;;;;;;10.25;7.53;;;7.40;80.70;;;;;;4979412;28;20031;-68
2022/02/03 21:38:47;;;;;;;9.38;7.18;;;7.40;80.70;;;;;;4980979;28;20038;-66
2022/02/03 21:41:14;;;;;;;9.95;7.43;;;7.40;80.70;;;;;;4980763;28;20042;-66
2022/02/03 21:43:41;;;;;;;11.20;7.22;;;7.30;80.50;;;;;;4981506;28;20031;-66
2022/02/03 21:46:08;;;;;;;11.50;8.48;;;7.40;80.60;;;;;;4980484;28;20038;-67
2022/02/03 21:48:35;;;;;;;11.05;7.80;;;7.30;80.40;;;;;;4977413;28;20030;-67
2022/02/03 21:51:02;;;;;;;12.07;8.18;;;7.30;80.30;;;;;;4979740;28;20043;-68
2022/02/03 21:53:31;;;;;;;11.68;8.30;;;7.30;80.30;;;;;;4978557;28;20114;-67
2022/02/03 21:55:57;;;;;;;12.57;8.73;;;7.30;80.10;;;;;;4979159;28;20038;-67
2022/02/03 21:58:25;;;;;;;11.20;8.00;;;7.20;80.10;;;;;;4978345;28;20038;-67
2022/02/03 22:01:00;;;;;;;12.40;8.70;;;7.20;80.10;;;;;;4978279;28;20026;-67
2022/02/03 22:03:28;;;;;;;13.88;8.80;;;7.20;80.00;;;;;;4977048;28;20034;-67
2022/02/03 22:05:56;;;;;;;9.98;6.95;;;7.10;79.90;;;;;;4977818;28;20112;-68
2022/02/03 22:08:21;;;;;;;9.85;7.07;;;7.10;79.80;;;;;;4978666;28;20545;-67
2022/02/03 22:10:47;;;;;;;10.30;7.03;;;7.10;79.90;;;;;;4976450;28;20045;-67
2022/02/03 22:13:13;;;;;;;8.07;6.80;;;7.10;80.00;;;;;;4979563;28;20035;-67
2022/02/03 22:15:40;;;;;;;8.25;6.45;;;7.10;80.10;;;;;;4976585;28;20118;-68
2022/02/03 22:18:11;;;;;;;8.55;6.50;;;7.00;80.10;;;;;;4978352;28;20038;-67
2022/02/03 22:20:42;;;;;;;8.45;6.13;;;7.00;80.10;;;;;;4978905;28;20035;-68
2022/02/03 22:49:33;;;;;;;8.93;6.32;;;6.40;81.30;;;;;;4975698;28;20049;-66
2022/02/03 22:51:58;;;;;;;7.97;5.93;;;6.40;82.10;;;;;;4975058;28;20125;-67
2022/02/03 22:54:24;;;;;;;8.25;5.75;;;6.40;81.30;;;;;;4975226;28;20121;-66
2022/02/03 22:56:50;;;;;;;9.98;6.22;;;6.30;81.40;;;;;;4975044;28;20049;-68
2022/02/03 23:00:00;;;;;;;9.82;6.00;;;6.30;81.30;;;;;;4977061;28;20045;-66
2022/02/03 23:02:07;;;;;;;6.88;5.40;;;6.40;81.30;;;;;;4973146;28;20433;-66
2022/02/03 23:04:32;;;;;;;7.18;5.45;;;6.30;81.40;;;;;;4976329;28;20031;-67
2022/02/03 23:07:24;;;;;;;9.30;6.18;;;6.30;81.50;;;;;;4975934;28;20643;-68
2022/02/03 23:12:39;;;;;;;9.00;6.28;;;6.40;81.60;;;;;;4976314;28;20031;-68
2022/02/03 23:15:27;;;;;;;9.57;5.82;;;6.30;81.30;;;;;;4975021;28;20413;-68
2022/02/03 23:17:55;;;;;;;10.15;6.35;;;6.40;81.10;;;;;;4976456;28;20043;-68
2022/02/03 23:20:24;;;;;;;11.25;6.68;;;6.40;81.00;;;;;;4974824;28;20643;-67
2022/02/03 23:22:51;;;;;;;11.40;7.20;;;6.40;81.10;;;;;;4976178;28;20448;-67
2022/02/03 23:25:19;;;;;;;12.73;7.15;;;6.40;80.90;;;;;;4978489;28;20038;-68
2022/02/03 23:30:31;;;;;;;10.88;7.00;;;6.30;81.30;;;;;;4977664;28;20033;-67
2022/02/03 23:32:57;;;;;;;9.43;6.38;;;6.20;81.40;;;;;;4975650;28;20045;-69
2022/02/03 23:35:29;;;;;;;10.18;6.63;;;6.10;81.70;;;;;;4978112;28;20046;-67
2022/02/03 23:38:03;;;;;;;10.38;6.50;;;6.10;81.90;;;;;;4976709;28;20065;-69
2022/02/03 23:46:20;;;;;;;10.23;6.60;;;6.10;81.70;;;;;;4975589;28;20049;-67
